Time;durP1;ratioP1;P1;durP2;ratioP2;P2;SDS_P1;SDS_P2;PMS_P1;PMS_P2;Temp;Humidity;BMP_temperature;BMP_pressure;BME280_temperature;BME280_humidity;BME280_pressure;Samples;Min_cycle;Max_cycle;Signal;HPM_P1;HPM_P2
2023/02/05 15:54:24;;;;;;;17.77;3.78;;;7.20;99.90;;;;;;5087023;27;20712;-70
2023/02/05 15:56:51;;;;;;;15.65;2.72;;;7.10;99.90;;;;;;5091439;28;20031;-70
2023/02/05 15:59:25;;;;;;;13.70;2.85;;;7.20;99.90;;;;;;5095945;28;20020;-69
2023/02/05 16:02:17;;;;;;;12.65;2.78;;;7.30;99.90;;;;;;5107679;28;20027;-67
2023/02/05 16:04:43;;;;;;;10.32;2.60;;;7.30;99.90;;;;;;5089117;28;20036;-74
2023/02/05 16:07:27;;;;;;;14.63;3.40;;;7.30;99.90;;;;;;5091915;28;20078;-73
2023/02/05 16:09:57;;;;;;;15.02;4.05;;;7.30;99.90;;;;;;5108021;28;20101;-69
2023/02/05 16:12:23;;;;;;;14.00;3.03;;;7.40;99.90;;;;;;5108274;28;20031;-68
2023/02/05 16:15:03;;;;;;;17.27;3.15;;;7.30;99.90;;;;;;5107471;28;20024;-69
2023/02/05 16:17:44;;;;;;;17.75;2.88;;;7.40;99.90;;;;;;5108089;28;20541;-64
2023/02/05 16:20:21;;;;;;;16.60;2.78;;;7.30;99.90;;;;;;5108554;28;20027;-74
2023/02/05 16:22:54;;;;;;;18.70;3.47;;;7.30;99.90;;;;;;5108554;28;20080;-67
2023/02/05 16:25:20;;;;;;;13.35;3.58;;;7.20;99.90;;;;;;5107615;28;20051;-71
2023/02/05 16:27:49;;;;;;;13.25;2.70;;;7.20;99.90;;;;;;5107463;28;20664;-68
2023/02/05 16:30:26;;;;;;;16.15;2.97;;;7.10;99.90;;;;;;5107742;28;20020;-68
2023/02/05 16:32:54;;;;;;;14.52;2.53;;;7.10;99.90;;;;;;5108271;28;20064;-69
2023/02/05 16:35:24;;;;;;;12.88;2.90;;;7.00;99.90;;;;;;5106246;28;20487;-71
2023/02/05 16:37:50;;;;;;;14.48;2.65;;;7.00;99.90;;;;;;5107886;28;20012;-74
2023/02/05 16:40:34;;;;;;;17.90;2.85;;;7.00;99.90;;;;;;5107777;28;20070;-70
2023/02/05 16:43:16;;;;;;;15.65;3.22;;;6.90;99.90;;;;;;5094060;28;20062;-63
2023/02/05 16:46:15;;;;;;;12.40;2.92;;;6.80;99.90;;;;;;5096188;28;20476;-69
2023/02/05 16:48:44;;;;;;;16.42;3.30;;;6.80;99.90;;;;;;5100871;28;20138;-64
2023/02/05 16:51:26;;;;;;;14.27;3.35;;;6.80;99.90;;;;;;5096190;28;20036;-69
2023/02/05 16:53:52;;;;;;;13.98;3.40;;;6.80;99.90;;;;;;5089070;28;20041;-68
2023/02/05 16:56:24;;;;;;;14.73;3.05;;;6.80;99.90;;;;;;5087567;28;20021;-68
2023/02/05 16:58:53;;;;;;;18.25;3.60;;;6.80;99.90;;;;;;5087267;28;20020;-68
2023/02/05 17:01:24;;;;;;;13.20;3.65;;;6.70;99.90;;;;;;5086053;28;20435;-67
2023/02/05 17:03:50;;;;;;;13.88;2.92;;;6.70;99.90;;;;;;5082874;28;20024;-70
2023/02/05 17:06:17;;;;;;;14.55;3.40;;;6.70;99.90;;;;;;5074538;28;20566;-67
2023/02/05 17:08:51;;;;;;;15.50;3.00;;;6.70;99.90;;;;;;5076847;28;20018;-67
2023/02/05 17:11:38;;;;;;;15.57;3.47;;;6.80;99.90;;;;;;5092191;28;20399;-66
2023/02/05 17:14:23;;;;;;;15.80;3.40;;;6.80;99.90;;;;;;5094095;28;20115;-65
2023/02/05 17:16:57;;;;;;;14.50;3.30;;;6.80;99.90;;;;;;5093401;28;20016;-67
2023/02/05 17:19:24;;;;;;;15.48;4.25;;;6.70;99.90;;;;;;5093984;28;20068;-69
2023/02/05 17:22:12;;;;;;;13.07;3.33;;;6.70;99.90;;;;;;5094050;28;20453;-68
2023/02/05 17:24:42;;;;;;;10.45;2.92;;;6.60;99.90;;;;;;5093350;28;20085;-66
2023/02/05 17:27:15;;;;;;;14.95;3.85;;;6.50;99.90;;;;;;5092580;28;20028;-68
2023/02/05 17:29:41;;;;;;;18.70;3.35;;;6.50;99.90;;;;;;5093108;28;20013;-65
2023/02/05 17:32:11;;;;;;;20.33;4.00;;;6.40;99.90;;;;;;5093529;28;20419;-69
2023/02/05 17:34:37;;;;;;;23.33;3.07;;;6.40;99.90;;;;;;5092490;28;20407;-68
2023/02/05 17:37:02;;;;;;;14.65;3.75;;;6.40;99.90;;;;;;5094039;28;20819;-67
2023/02/05 17:39:28;;;;;;;14.45;2.53;;;6.40;99.90;;;;;;5091904;28;20436;-67
2023/02/05 17:42:02;;;;;;;21.23;3.40;;;6.50;99.90;;;;;;5093875;28;20024;-68
2023/02/05 17:44:28;;;;;;;16.85;3.22;;;6.50;99.90;;;;;;5093910;28;20028;-67
2023/02/05 17:46:54;;;;;;;14.45;3.90;;;6.50;99.90;;;;;;5093410;28;20116;-68
2023/02/05 17:49:19;;;;;;;20.00;3.88;;;6.40;99.90;;;;;;5093169;28;20024;-66
2023/02/05 17:51:45;;;;;;;18.45;3.05;;;6.40;99.90;;;;;;5093435;28;20016;-68
2023/02/05 17:54:16;;;;;;;16.75;2.95;;;6.40;99.90;;;;;;5093220;28;20051;-66
2023/02/05 17:56:43;;;;;;;18.58;3.83;;;6.30;99.90;;;;;;5093427;28;20024;-66
2023/02/05 17:59:15;;;;;;;15.20;4.25;;;6.20;99.90;;;;;;5091289;28;20054;-67
2023/02/05 18:01:41;;;;;;;15.88;3.95;;;6.10;99.90;;;;;;5093604;28;20102;-66
2023/02/05 18:04:06;;;;;;;18.42;3.20;;;6.00;99.90;;;;;;5093101;28;20059;-65
2023/02/05 18:06:33;;;;;;;18.70;2.78;;;6.10;99.90;;;;;;5092027;28;20476;-64
2023/02/05 18:08:59;;;;;;;23.75;4.45;;;6.00;99.90;;;;;;5091348;28;20031;-67
2023/02/05 18:11:24;;;;;;;14.52;3.58;;;6.00;99.90;;;;;;5072540;28;20021;-66
2023/02/05 18:13:50;;;;;;;19.58;3.35;;;6.00;99.90;;;;;;5072127;28;20115;-66
2023/02/05 18:16:16;;;;;;;19.58;3.47;;;6.00;99.90;;;;;;5071435;28;20472;-65
2023/02/05 18:18:41;;;;;;;15.43;3.10;;;6.00;99.90;;;;;;5072378;28;20028;-63
2023/02/05 18:21:07;;;;;;;19.10;4.25;;;6.00;99.90;;;;;;5081249;28;20384;-67
2023/02/05 18:23:33;;;;;;;21.55;3.05;;;6.00;99.90;;;;;;5070603;28;20031;-68
2023/02/05 18:26:00;;;;;;;16.35;3.15;;;6.00;99.90;;;;;;5072708;28;20093;-65
2023/02/05 18:28:26;;;;;;;15.55;3.60;;;6.00;99.90;;;;;;5071800;28;20350;-67
2023/02/05 18:31:00;;;;;;;20.30;3.75;;;6.00;99.90;;;;;;5072781;28;20066;-66
2023/02/05 18:33:26;;;;;;;19.40;3.72;;;6.00;99.90;;;;;;5073276;28;20044;-67
2023/02/05 18:35:52;;;;;;;21.30;3.88;;;6.00;99.90;;;;;;5092338;28;20020;-68
2023/02/05 18:38:19;;;;;;;20.35;4.40;;;6.00;99.90;;;;;;5092534;28;20016;-64
2023/02/05 18:40:46;;;;;;;13.25;3.15;;;6.00;99.90;;;;;;5092375;28;20024;-70
2023/02/05 18:43:12;;;;;;;19.17;4.07;;;6.00;99.90;;;;;;5092014;28;20020;-66
2023/02/05 18:45:38;;;;;;;22.15;4.43;;;5.90;99.90;;;;;;5091807;28;20030;-64
2023/02/05 18:48:04;;;;;;;14.00;3.83;;;5.90;99.90;;;;;;5091817;28;20048;-66
2023/02/05 18:50:30;;;;;;;23.95;4.68;;;5.90;99.90;;;;;;5092172;28;20424;-67
2023/02/05 18:52:56;;;;;;;20.98;3.58;;;5.80;99.90;;;;;;5091446;28;20078;-69
2023/02/05 18:55:21;;;;;;;26.98;4.47;;;5.80;99.90;;;;;;5091371;28;20058;-65
2023/02/05 18:57:50;;;;;;;26.60;4.32;;;5.80;99.90;;;;;;5092284;28;20016;-68
2023/02/05 19:00:16;;;;;;;18.88;3.63;;;5.70;99.90;;;;;;5091535;28;20032;-64
2023/02/05 19:02:42;;;;;;;14.35;3.58;;;5.70;99.90;;;;;;5091358;28;20065;-64
2023/02/05 19:05:10;;;;;;;13.82;3.25;;;5.60;99.90;;;;;;5090991;28;20020;-64
2023/02/05 19:07:36;;;;;;;16.40;3.55;;;5.60;99.90;;;;;;5089982;28;20036;-65
2023/02/05 19:10:02;;;;;;;20.35;3.78;;;5.60;99.90;;;;;;5091475;28;20091;-64
2023/02/05 19:12:28;;;;;;;16.77;3.00;;;5.50;99.90;;;;;;5091337;28;20039;-64
2023/02/05 19:14:54;;;;;;;19.90;5.70;;;5.50;99.90;;;;;;5090789;28;20025;-64
2023/02/05 19:17:20;;;;;;;17.40;4.50;;;5.50;99.90;;;;;;5090998;28;20020;-63
2023/02/05 19:19:48;;;;;;;21.35;3.72;;;5.50;99.90;;;;;;5089749;28;20391;-63
2023/02/05 19:22:14;;;;;;;18.60;3.60;;;5.40;99.90;;;;;;5090920;28;20012;-64
2023/02/05 19:24:39;;;;;;;18.55;3.75;;;5.30;99.90;;;;;;5090108;28;20118;-66
2023/02/05 19:27:05;;;;;;;17.25;4.10;;;5.40;99.90;;;;;;5091554;28;20074;-64
2023/02/05 19:29:36;;;;;;;18.83;3.72;;;5.30;99.90;;;;;;5091707;28;20031;-68
2023/02/05 19:32:04;;;;;;;17.77;4.57;;;5.20;99.90;;;;;;5089926;28;20028;-68
2023/02/05 19:34:30;;;;;;;15.75;2.88;;;5.20;99.90;;;;;;5091205;28;20024;-65
2023/02/05 19:36:55;;;;;;;18.05;3.55;;;5.20;99.90;;;;;;5092072;28;20020;-67
2023/02/05 19:39:21;;;;;;;15.57;3.75;;;5.10;99.90;;;;;;5089604;28;20075;-67
2023/02/05 19:41:47;;;;;;;16.45;3.42;;;5.10;99.90;;;;;;5090432;28;20020;-68
2023/02/05 19:44:13;;;;;;;20.60;4.13;;;5.00;99.90;;;;;;5091702;28;20012;-69
2023/02/05 19:46:43;;;;;;;15.02;3.38;;;4.90;99.90;;;;;;5091032;28;20103;-70
2023/02/05 19:49:17;;;;;;;14.90;3.60;;;4.90;99.90;;;;;;5091335;28;20021;-68
2023/02/05 19:51:45;;;;;;;24.73;5.35;;;4.80;99.90;;;;;;5091226;28;20103;-66
2023/02/05 19:54:10;;;;;;;16.52;4.13;;;4.80;99.90;;;;;;5090733;28;20048;-66
2023/02/05 19:56:36;;;;;;;16.88;4.45;;;4.70;99.90;;;;;;5090082;28;20027;-66
2023/02/05 19:59:04;;;;;;;19.70;3.47;;;4.70;99.90;;;;;;5090347;28;20066;-68
2023/02/05 20:01:32;;;;;;;9.30;2.75;;;4.60;99.90;;;;;;5089833;28;20027;-67
2023/02/05 20:04:06;;;;;;;13.05;3.47;;;4.50;99.90;;;;;;5091589;28;20099;-67
2023/02/05 20:06:32;;;;;;;16.98;4.32;;;4.50;99.90;;;;;;5089881;28;20124;-67
2023/02/05 20:09:00;;;;;;;18.08;3.75;;;4.40;99.90;;;;;;5091189;28;20464;-65
2023/02/05 20:11:27;;;;;;;16.77;4.43;;;4.40;99.90;;;;;;5088392;28;20020;-65
2023/02/05 20:13:53;;;;;;;17.38;3.55;;;4.30;99.90;;;;;;5088672;28;20492;-65
2023/02/05 20:16:21;;;;;;;16.95;4.07;;;4.20;99.90;;;;;;5089620;28;20105;-65
2023/02/05 20:18:52;;;;;;;24.60;3.72;;;4.20;99.90;;;;;;5091607;28;20492;-66
2023/02/05 20:21:19;;;;;;;18.75;3.60;;;4.10;99.90;;;;;;5090754;28;20436;-68
2023/02/05 20:23:46;;;;;;;17.65;4.22;;;4.10;99.90;;;;;;5091721;28;20017;-67
